createdAt,value
2018-10-03T00:01:54.946Z,3.13
2018-10-03T00:04:22.787Z,3.67
2018-10-03T00:06:50.619Z,2.60
2018-10-03T00:09:19.214Z,3.67
2018-10-03T00:11:47.023Z,3.17
2018-10-03T00:14:14.864Z,3.27
2018-10-03T00:16:42.786Z,3.83
2018-10-03T00:19:10.620Z,3.00
2018-10-03T00:21:38.481Z,3.37
2018-10-03T00:24:06.388Z,3.20
2018-10-03T00:26:34.225Z,3.20
2018-10-03T00:29:02.427Z,3.07
2018-10-03T00:31:30.231Z,2.43
2018-10-03T00:33:58.107Z,3.00
2018-10-03T00:36:25.997Z,2.83
2018-10-03T00:38:54.595Z,2.80
2018-10-03T00:41:22.427Z,3.47
2018-10-03T00:43:50.294Z,3.20
2018-10-03T00:46:18.148Z,3.07
2018-10-03T00:48:46.000Z,2.63
2018-10-03T00:51:14.150Z,3.40
2018-10-03T00:53:42.318Z,3.03
2018-10-03T00:56:10.236Z,3.03
2018-10-03T00:58:38.146Z,2.70
2018-10-03T01:01:06.296Z,3.47
2018-10-03T01:03:34.108Z,3.17
2018-10-03T01:06:01.969Z,3.23
2018-10-03T01:08:29.827Z,3.10
2018-10-03T01:10:57.655Z,3.40
2018-10-03T01:13:25.456Z,3.17
2018-10-03T01:15:53.283Z,2.70
2018-10-03T01:18:21.090Z,2.47
2018-10-03T01:20:49.150Z,2.57
2018-10-03T01:23:17.246Z,2.47
2018-10-03T01:25:45.198Z,3.40
2018-10-03T01:28:13.379Z,2.43
2018-10-03T01:30:41.240Z,2.03
2018-10-03T01:33:09.075Z,2.80
2018-10-03T01:35:36.946Z,2.53
2018-10-03T01:38:04.867Z,2.40
2018-10-03T01:40:32.697Z,2.40
2018-10-03T01:43:00.536Z,2.10
2018-10-03T01:45:32.993Z,1.80
2018-10-03T01:48:01.589Z,2.40
2018-10-03T01:50:29.441Z,2.73
2018-10-03T01:52:57.323Z,2.80
2018-10-03T01:55:25.191Z,2.30
2018-10-03T01:57:53.008Z,2.77
2018-10-03T02:00:20.853Z,2.30
2018-10-03T02:02:48.711Z,2.57
2018-10-03T02:05:16.539Z,2.40
2018-10-03T02:07:44.678Z,2.67
2018-10-03T02:10:12.498Z,2.43
2018-10-03T02:12:40.322Z,3.00
2018-10-03T02:15:08.195Z,2.60
2018-10-03T02:17:36.014Z,2.43
2018-10-03T02:20:04.523Z,2.70
2018-10-03T02:22:32.437Z,3.13
2018-10-03T02:25:00.273Z,3.60
2018-10-03T02:27:28.164Z,3.30
2018-10-03T02:29:56.292Z,3.10
2018-10-03T02:32:24.168Z,3.30
2018-10-03T02:34:52.012Z,4.10
2018-10-03T02:37:19.898Z,4.10
2018-10-03T02:39:47.740Z,4.43
2018-10-03T02:42:15.559Z,3.57
2018-10-03T02:44:43.407Z,4.20
2018-10-03T02:47:11.305Z,5.03
2018-10-03T02:49:39.144Z,4.33
2018-10-03T02:52:07.225Z,4.60
2018-10-03T02:54:35.073Z,4.50
2018-10-03T02:57:02.905Z,4.90
2018-10-03T02:59:30.709Z,4.73
2018-10-03T03:01:58.522Z,4.80
2018-10-03T03:04:26.401Z,6.13
2018-10-03T03:06:54.244Z,4.50
2018-10-03T03:09:22.053Z,5.50
2018-10-03T03:11:49.877Z,4.50
2018-10-03T03:14:17.724Z,5.00
2018-10-03T03:16:45.632Z,4.90
2018-10-03T03:19:13.469Z,4.90
2018-10-03T03:21:41.329Z,5.07
2018-10-03T03:24:09.187Z,5.10
2018-10-03T03:26:37.034Z,5.40
2018-10-03T03:29:04.887Z,4.80
2018-10-03T03:31:32.737Z,5.30
2018-10-03T03:34:00.524Z,5.60
2018-10-03T03:36:28.377Z,5.87
2018-10-03T03:38:56.259Z,5.67
2018-10-03T03:41:24.085Z,4.90
2018-10-03T03:43:52.231Z,5.00
2018-10-03T03:46:20.054Z,4.67
2018-10-03T03:48:48.116Z,5.83
2018-10-03T03:51:15.930Z,5.13
2018-10-03T03:53:43.740Z,5.10
2018-10-03T03:56:11.872Z,5.50
2018-10-03T03:58:39.677Z,5.90
2018-10-03T04:01:07.496Z,5.20
2018-10-03T04:03:35.355Z,5.13
2018-10-03T04:06:03.222Z,5.60
2018-10-03T04:08:31.051Z,5.37
2018-10-03T04:10:59.119Z,5.10
2018-10-03T04:13:26.968Z,5.50
2018-10-03T04:15:54.846Z,5.90
2018-10-03T04:18:22.721Z,5.37
2018-10-03T04:20:50.584Z,5.30
2018-10-03T04:23:18.441Z,5.80
2018-10-03T04:25:46.271Z,4.50
2018-10-03T04:28:14.404Z,5.10
2018-10-03T04:30:42.260Z,5.10
2018-10-03T04:33:10.068Z,5.50
2018-10-03T04:35:37.945Z,5.20
2018-10-03T04:38:05.869Z,5.50
2018-10-03T04:40:33.728Z,4.80
2018-10-03T04:43:01.604Z,4.90
2018-10-03T04:45:29.428Z,5.97
2018-10-03T04:47:57.229Z,5.07
2018-10-03T04:50:25.047Z,5.23
2018-10-03T04:52:53.153Z,4.80
2018-10-03T04:55:20.965Z,5.50
2018-10-03T04:57:49.127Z,4.93
2018-10-03T05:00:17.003Z,6.03
2018-10-03T05:02:44.843Z,4.97
2018-10-03T05:05:12.715Z,5.10
2018-10-03T05:07:40.620Z,5.97
2018-10-03T05:10:08.529Z,5.60
2018-10-03T05:12:36.381Z,6.37
2018-10-03T05:15:04.284Z,5.47
2018-10-03T05:17:32.193Z,6.17
2018-10-03T05:20:00.012Z,5.70
2018-10-03T05:22:27.881Z,6.47
2018-10-03T05:24:55.792Z,5.50
2018-10-03T05:27:23.616Z,5.40
2018-10-03T05:29:51.491Z,5.93
2018-10-03T05:32:19.302Z,6.27
2018-10-03T05:34:47.426Z,5.80
2018-10-03T05:37:15.260Z,6.30
2018-10-03T05:39:43.189Z,6.10
2018-10-03T05:42:11.000Z,5.90
2018-10-03T05:44:38.918Z,6.57
2018-10-03T05:47:06.760Z,6.90
2018-10-03T05:49:34.682Z,6.20
2018-10-03T05:52:02.529Z,6.53
2018-10-03T05:54:30.344Z,5.07
2018-10-03T05:56:58.226Z,6.93
2018-10-03T05:59:26.109Z,5.93
2018-10-03T06:01:54.258Z,6.30
2018-10-03T06:04:22.147Z,6.63
2018-10-03T06:06:50.016Z,5.80
2018-10-03T06:09:17.847Z,6.10
2018-10-03T06:11:45.829Z,5.83
2018-10-03T06:14:13.717Z,6.20
2018-10-03T06:16:41.974Z,6.47
2018-10-03T06:19:09.830Z,5.43
2018-10-03T06:21:37.730Z,6.03
2018-10-03T06:24:05.587Z,5.90
2018-10-03T06:26:33.403Z,5.40
2018-10-03T06:29:01.362Z,5.17
2018-10-03T06:31:29.236Z,5.53
2018-10-03T06:33:57.097Z,6.13
2018-10-03T06:36:24.912Z,5.33
2018-10-03T06:38:52.781Z,5.40
2018-10-03T06:41:20.653Z,5.67
2018-10-03T06:43:48.496Z,5.40
2018-10-03T06:46:16.337Z,6.00
2018-10-03T06:48:44.144Z,5.33
2018-10-03T06:51:11.993Z,5.60
2018-10-03T06:53:39.851Z,5.87
2018-10-03T06:56:07.949Z,4.77
2018-10-03T06:58:35.789Z,4.70
2018-10-03T07:01:03.683Z,5.30
2018-10-03T07:03:31.540Z,5.93
2018-10-03T07:05:59.462Z,5.80
2018-10-03T07:08:27.388Z,5.30
2018-10-03T07:10:55.251Z,5.13
2018-10-03T07:13:23.113Z,4.97
2018-10-03T07:15:50.988Z,4.90
2018-10-03T07:18:18.814Z,4.73
2018-10-03T07:20:46.650Z,4.40
2018-10-03T07:23:14.469Z,4.77
2018-10-03T07:25:42.409Z,4.70
2018-10-03T07:28:10.235Z,5.40
2018-10-03T07:30:38.092Z,4.20
2018-10-03T07:33:06.109Z,3.27
2018-10-03T07:35:33.953Z,3.33
2018-10-03T07:38:01.839Z,4.30
2018-10-03T07:40:29.707Z,3.83
2018-10-03T07:42:57.581Z,4.40
2018-10-03T07:45:25.478Z,4.43
2018-10-03T07:47:53.308Z,4.13
2018-10-03T07:50:21.221Z,4.00
2018-10-03T07:52:49.070Z,3.70
2018-10-03T07:55:16.952Z,3.13
2018-10-03T07:57:44.821Z,3.10
2018-10-03T08:00:12.817Z,4.20
2018-10-03T08:02:40.690Z,4.00
2018-10-03T08:05:08.595Z,3.53
2018-10-03T08:07:36.449Z,3.60
2018-10-03T08:10:04.455Z,3.03
2018-10-03T08:12:32.236Z,3.87
2018-10-03T08:15:00.105Z,3.03
2018-10-03T08:17:28.047Z,3.40
2018-10-03T08:19:55.843Z,2.90
2018-10-03T08:22:23.712Z,3.27
2018-10-03T08:24:51.642Z,3.33
2018-10-03T08:27:19.586Z,2.93
2018-10-03T08:38:47.975Z,2.33
2018-10-03T08:41:15.737Z,1.80
2018-10-03T08:43:43.581Z,2.10
2018-10-03T08:46:11.477Z,2.20
2018-10-03T08:48:39.320Z,2.10
2018-10-03T08:51:07.198Z,1.60
2018-10-03T08:53:35.158Z,2.57
2018-10-03T08:56:03.046Z,1.60
2018-10-03T08:58:31.388Z,1.70
2018-10-03T09:00:59.135Z,1.87
2018-10-03T09:03:26.980Z,1.80
2018-10-03T09:05:54.838Z,1.80
2018-10-03T09:08:22.705Z,1.90
2018-10-03T09:10:50.797Z,2.13
2018-10-03T09:13:18.627Z,1.83
2018-10-03T09:15:46.745Z,1.70
2018-10-03T09:18:14.598Z,1.87
2018-10-03T09:20:42.481Z,1.93
2018-10-03T09:23:10.317Z,1.97
2018-10-03T09:25:38.132Z,1.90
2018-10-03T09:28:06.004Z,1.73
2018-10-03T09:30:33.838Z,1.97
2018-10-03T09:33:01.670Z,2.20
2018-10-03T09:35:29.515Z,1.70
2018-10-03T09:37:57.375Z,1.97
2018-10-03T09:40:25.275Z,1.80
2018-10-03T09:42:53.149Z,1.80
2018-10-03T09:45:21.023Z,2.60
2018-10-03T09:47:48.835Z,2.37
2018-10-03T09:50:16.714Z,2.50
2018-10-03T09:52:44.903Z,2.83
2018-10-03T09:55:12.772Z,2.90
2018-10-03T09:57:41.244Z,2.70
2018-10-03T10:00:09.111Z,2.80
2018-10-03T10:02:37.517Z,3.17
2018-10-03T10:05:05.457Z,3.43
2018-10-03T10:07:33.634Z,3.37
2018-10-03T10:10:01.467Z,3.57
2018-10-03T10:12:29.289Z,3.00
2018-10-03T10:14:57.105Z,3.37
2018-10-03T10:17:25.314Z,3.23
2018-10-03T10:19:53.171Z,3.00
2018-10-03T10:22:21.019Z,3.40
2018-10-03T10:24:48.860Z,4.40
2018-10-03T10:27:16.686Z,3.57
2018-10-03T10:29:44.502Z,3.70
2018-10-03T10:32:12.760Z,4.00
2018-10-03T10:34:40.556Z,3.87
2018-10-03T10:37:08.449Z,4.40
2018-10-03T10:39:36.334Z,3.93
2018-10-03T10:42:04.310Z,4.60
2018-10-03T10:44:32.243Z,3.93
2018-10-03T10:47:00.181Z,4.27
2018-10-03T10:49:28.040Z,3.87
2018-10-03T10:51:56.159Z,3.50
2018-10-03T10:54:24.002Z,4.30
2018-10-03T10:56:51.863Z,3.90
2018-10-03T10:59:20.067Z,4.30
2018-10-03T11:01:47.895Z,4.40
2018-10-03T11:04:15.789Z,4.10
2018-10-03T11:06:43.769Z,3.73
2018-10-03T11:09:11.549Z,4.00
2018-10-03T11:11:39.409Z,3.30
2018-10-03T11:14:07.574Z,3.83
2018-10-03T11:16:35.432Z,3.70
2018-10-03T11:19:03.268Z,4.27
2018-10-03T11:21:31.229Z,3.27
2018-10-03T11:23:59.295Z,3.83
2018-10-03T11:26:27.020Z,3.67
2018-10-03T11:28:54.892Z,3.20
2018-10-03T11:31:22.733Z,3.50
2018-10-03T11:33:50.599Z,3.00
2018-10-03T11:36:18.489Z,3.50
2018-10-03T11:38:46.377Z,3.33
2018-10-03T11:41:14.510Z,3.70
2018-10-03T11:43:42.386Z,3.60
2018-10-03T11:46:10.244Z,2.83
2018-10-03T11:48:38.089Z,3.07
2018-10-03T11:51:05.956Z,3.33
2018-10-03T11:53:33.813Z,3.10
2018-10-03T11:56:01.617Z,3.17
2018-10-03T11:58:29.516Z,3.13
2018-10-03T12:00:57.448Z,2.70
2018-10-03T12:03:25.383Z,3.47
2018-10-03T12:05:53.174Z,3.27
2018-10-03T12:08:21.032Z,3.37
2018-10-03T12:10:48.896Z,2.97
2018-10-03T12:13:16.801Z,2.80
2018-10-03T12:15:44.641Z,3.70
2018-10-03T12:18:12.799Z,4.77
2018-10-03T12:20:40.690Z,3.00
2018-10-03T12:23:08.534Z,3.83
2018-10-03T12:25:36.706Z,3.10
2018-10-03T12:28:04.781Z,3.37
2018-10-03T12:30:33.545Z,3.73
2018-10-03T12:33:01.388Z,3.23
2018-10-03T12:35:34.343Z,3.57
2018-10-03T12:38:02.635Z,3.60
2018-10-03T12:40:30.997Z,3.20
2018-10-03T12:42:58.846Z,4.03
2018-10-03T12:45:27.267Z,4.17
2018-10-03T12:47:55.331Z,3.33
2018-10-03T12:50:23.149Z,3.33
2018-10-03T12:52:50.997Z,3.30
2018-10-03T12:55:18.869Z,3.30
2018-10-03T12:57:46.979Z,2.97
2018-10-03T13:00:15.020Z,3.40
2018-10-03T13:02:42.896Z,3.27
2018-10-03T13:05:10.723Z,2.93
2018-10-03T13:07:38.546Z,3.50
2018-10-03T13:10:06.707Z,2.83
2018-10-03T13:12:34.880Z,3.13
2018-10-03T13:15:02.781Z,2.60
2018-10-03T13:17:30.609Z,3.10
2018-10-03T13:19:58.706Z,3.20
2018-10-03T13:22:26.520Z,4.17
2018-10-03T13:24:54.374Z,2.83
2018-10-03T13:27:22.267Z,2.93
2018-10-03T13:29:50.124Z,2.60
2018-10-03T13:32:17.987Z,2.67
2018-10-03T13:34:45.838Z,2.67
2018-10-03T13:37:13.747Z,2.30
2018-10-03T13:39:41.849Z,2.33
2018-10-03T13:42:09.928Z,3.03
2018-10-03T13:44:37.763Z,2.80
2018-10-03T13:47:05.371Z,2.70
2018-10-03T13:49:33.188Z,2.50
2018-10-03T13:52:01.296Z,3.23
2018-10-03T13:54:29.177Z,3.20
2018-10-03T13:56:57.317Z,2.90
2018-10-03T13:59:25.159Z,2.93
2018-10-03T14:01:53.127Z,3.07
2018-10-03T14:04:21.126Z,3.40
2018-10-03T14:06:48.985Z,2.40
2018-10-03T14:09:17.100Z,2.37
2018-10-03T14:11:44.943Z,3.50
2018-10-03T14:14:12.809Z,3.07
2018-10-03T14:16:40.672Z,2.70
2018-10-03T14:19:08.559Z,3.07
2018-10-03T14:21:36.398Z,3.63
2018-10-03T14:24:04.247Z,3.40
2018-10-03T14:26:32.149Z,2.97
2018-10-03T14:28:59.993Z,2.70
2018-10-03T14:31:27.850Z,3.37
2018-10-03T14:33:55.693Z,3.63
2018-10-03T14:36:23.560Z,3.30
2018-10-03T14:38:51.475Z,3.60
2018-10-03T14:41:19.347Z,2.90
2018-10-03T14:43:47.253Z,2.93
2018-10-03T14:46:15.109Z,3.87
2018-10-03T14:48:43.028Z,4.60
2018-10-03T14:51:10.885Z,3.73
2018-10-03T14:53:38.767Z,3.03
2018-10-03T14:56:07.305Z,3.57
2018-10-03T14:58:35.248Z,4.50
2018-10-03T15:01:03.065Z,3.77
2018-10-03T15:03:30.866Z,4.30
2018-10-03T15:05:59.020Z,4.73
2018-10-03T15:08:26.869Z,3.80
2018-10-03T15:10:54.719Z,3.50
2018-10-03T15:13:22.552Z,3.20
2018-10-03T15:15:50.501Z,3.13
2018-10-03T15:18:18.471Z,3.13
2018-10-03T15:20:46.373Z,3.07
2018-10-03T15:23:14.262Z,3.23
2018-10-03T15:25:42.174Z,3.13
2018-10-03T15:28:09.996Z,4.40
2018-10-03T15:30:37.899Z,5.27
2018-10-03T15:33:05.896Z,4.23
2018-10-03T15:35:33.881Z,6.23
2018-10-03T15:38:01.615Z,6.20
2018-10-03T15:40:29.555Z,4.43
2018-10-03T15:42:57.477Z,4.47
2018-10-03T15:45:25.365Z,3.00
2018-10-03T15:47:53.274Z,3.60
2018-10-03T15:50:21.138Z,3.30
2018-10-03T15:52:49.031Z,3.60
2018-10-03T15:55:16.898Z,3.40
2018-10-03T15:57:44.777Z,3.80
2018-10-03T16:00:12.698Z,3.40
2018-10-03T16:02:40.512Z,3.67
2018-10-03T16:05:08.432Z,3.87
2018-10-03T16:07:36.263Z,3.57
2018-10-03T16:10:04.187Z,3.67
2018-10-03T16:12:32.053Z,3.00
2018-10-03T16:14:59.957Z,4.23
2018-10-03T16:17:27.756Z,3.70
2018-10-03T16:19:55.888Z,4.30
2018-10-03T16:22:23.720Z,3.30
2018-10-03T16:24:51.531Z,3.47
2018-10-03T16:27:19.346Z,4.37
2018-10-03T16:29:47.203Z,3.63
2018-10-03T16:32:15.045Z,3.80
2018-10-03T16:34:43.874Z,3.67
2018-10-03T16:37:12.596Z,6.07
2018-10-03T16:39:41.505Z,4.30
2018-10-03T16:42:09.342Z,4.40
2018-10-03T16:44:37.195Z,4.17
2018-10-03T16:47:06.063Z,6.13
2018-10-03T16:49:34.610Z,5.40
2018-10-03T16:52:02.456Z,6.10
2018-10-03T16:54:30.991Z,3.87
2018-10-03T16:56:58.810Z,3.40
2018-10-03T16:59:26.691Z,3.73
2018-10-03T17:01:54.531Z,3.80
2018-10-03T17:04:23.192Z,3.47
2018-10-03T17:06:51.034Z,3.87
2018-10-03T17:09:19.160Z,3.50
2018-10-03T17:11:47.291Z,7.57
2018-10-03T17:14:32.112Z,4.00
2018-10-03T17:16:59.989Z,10.47
2018-10-03T17:19:28.420Z,9.43
2018-10-03T17:21:57.611Z,6.70
2018-10-03T17:24:27.304Z,3.63
2018-10-03T17:26:55.517Z,3.70
2018-10-03T17:29:23.756Z,3.77
2018-10-03T17:31:51.669Z,4.37
2018-10-03T17:34:20.256Z,3.77
2018-10-03T17:36:49.632Z,3.93
2018-10-03T17:39:17.935Z,3.97
2018-10-03T17:41:46.111Z,3.43
2018-10-03T17:44:14.882Z,3.70
2018-10-03T17:46:42.884Z,4.00
2018-10-03T17:49:11.823Z,5.50
2018-10-03T17:51:40.818Z,5.13
2018-10-03T17:54:10.586Z,16.40
2018-10-03T17:56:38.473Z,13.67
2018-10-03T17:59:07.579Z,5.30
2018-10-03T18:01:37.339Z,4.70
2018-10-03T18:04:05.288Z,4.20
2018-10-03T18:06:33.475Z,4.30
2018-10-03T18:09:01.368Z,4.87
2018-10-03T18:11:29.218Z,9.57
2018-10-03T18:13:57.628Z,8.37
2018-10-03T18:16:25.985Z,15.90
2018-10-03T18:18:53.875Z,6.17
2018-10-03T18:21:21.941Z,9.87
2018-10-03T18:23:49.844Z,5.60
2018-10-03T18:26:17.937Z,14.80
2018-10-03T18:28:45.754Z,8.97
2018-10-03T18:31:13.614Z,9.03
2018-10-03T18:33:41.564Z,5.90
2018-10-03T18:36:10.385Z,4.63
2018-10-03T18:38:38.246Z,6.63
2018-10-03T18:41:06.098Z,4.83
2018-10-03T18:43:34.174Z,4.47
2018-10-03T18:46:02.008Z,5.57
2018-10-03T18:48:29.835Z,5.17
2018-10-03T18:50:57.665Z,4.23
2018-10-03T18:53:25.530Z,4.17
2018-10-03T18:55:54.168Z,4.60
2018-10-03T18:58:23.397Z,6.10
2018-10-03T19:00:55.189Z,6.10
2018-10-03T19:03:23.800Z,5.33
2018-10-03T19:05:53.004Z,5.53
2018-10-03T19:08:21.324Z,5.30
2018-10-03T19:10:49.207Z,5.87
2018-10-03T19:13:17.685Z,5.40
2018-10-03T19:15:46.102Z,5.83
2018-10-03T19:18:14.051Z,6.03
2018-10-03T19:20:41.926Z,5.40
2018-10-03T19:23:09.745Z,5.57
2018-10-03T19:25:37.553Z,4.63
2018-10-03T19:28:07.149Z,4.90
2018-10-03T19:30:34.983Z,5.03
2018-10-03T19:33:03.121Z,8.20
2018-10-03T19:35:31.686Z,10.00
2018-10-03T19:37:59.508Z,11.10
2018-10-03T19:40:28.406Z,6.83
2018-10-03T19:42:56.292Z,6.40
2018-10-03T19:45:24.178Z,5.20
2018-10-03T19:47:58.222Z,7.10
2018-10-03T19:50:26.016Z,5.30
2018-10-03T19:52:54.228Z,5.40
2018-10-03T19:55:23.098Z,4.90
2018-10-03T19:57:51.047Z,5.77
2018-10-03T20:00:18.936Z,6.40
2018-10-03T20:02:47.477Z,5.57
2018-10-03T20:05:15.329Z,5.50
2018-10-03T20:07:43.177Z,5.77
2018-10-03T20:10:11.009Z,5.83
2018-10-03T20:12:38.878Z,6.63
2018-10-03T20:15:06.914Z,6.40
2018-10-03T20:17:35.435Z,7.50
2018-10-03T20:20:03.297Z,6.60
2018-10-03T20:22:31.179Z,6.63
2018-10-03T20:24:59.032Z,6.30
2018-10-03T20:27:27.197Z,6.97
2018-10-03T20:29:54.994Z,6.33
2018-10-03T20:32:22.854Z,6.57
2018-10-03T20:34:50.727Z,5.80
2018-10-03T20:37:18.636Z,6.50
2018-10-03T20:39:46.549Z,6.60
2018-10-03T20:42:14.450Z,6.37
2018-10-03T20:44:42.327Z,6.70
2018-10-03T20:47:10.237Z,7.60
2018-10-03T20:49:38.135Z,6.47
2018-10-03T20:52:06.078Z,6.87
2018-10-03T20:54:33.934Z,6.40
2018-10-03T20:57:01.927Z,6.63
2018-10-03T20:59:29.825Z,6.73
2018-10-03T21:01:57.725Z,6.03
2018-10-03T21:04:25.634Z,7.17
2018-10-03T21:06:53.499Z,6.13
2018-10-03T21:09:21.386Z,5.37
2018-10-03T21:11:49.339Z,6.73
2018-10-03T21:14:17.218Z,5.80
2018-10-03T21:16:45.108Z,5.43
2018-10-03T21:19:12.994Z,5.40
2018-10-03T21:21:40.895Z,6.33
2018-10-03T21:24:08.795Z,6.70
2018-10-03T21:26:36.627Z,6.07
2018-10-03T21:29:04.719Z,6.27
2018-10-03T21:31:32.671Z,7.40
2018-10-03T21:34:00.545Z,7.03
2018-10-03T21:36:28.455Z,6.97
2018-10-03T21:38:56.414Z,6.50
2018-10-03T21:41:24.298Z,6.30
2018-10-03T21:43:52.188Z,6.70
2018-10-03T21:46:20.078Z,6.37
2018-10-03T21:48:48.059Z,5.77
2018-10-03T21:51:15.937Z,5.70
2018-10-03T21:53:43.811Z,6.43
2018-10-03T21:56:11.641Z,7.30
2018-10-03T21:58:39.504Z,6.93
2018-10-03T22:01:07.524Z,6.63
2018-10-03T22:03:35.407Z,5.40
2018-10-03T22:06:03.272Z,5.37
2018-10-03T22:08:31.109Z,5.33
2018-10-03T22:10:58.942Z,4.77
2018-10-03T22:13:26.756Z,5.00
2018-10-03T22:15:54.613Z,4.20
2018-10-03T22:18:22.468Z,4.90
2018-10-03T22:20:50.306Z,4.47
2018-10-03T22:23:18.421Z,3.70
2018-10-03T22:25:46.278Z,4.07
2018-10-03T22:28:14.110Z,5.10
2018-10-03T22:30:41.924Z,4.50
2018-10-03T22:33:09.794Z,4.33
2018-10-03T22:35:37.640Z,4.30
2018-10-03T22:38:05.475Z,3.53
2018-10-03T22:40:33.340Z,3.80
2018-10-03T22:43:01.155Z,4.97
2018-10-03T22:45:28.988Z,4.70
2018-10-03T22:47:56.809Z,4.20
2018-10-03T22:50:24.652Z,5.27
2018-10-03T22:52:52.599Z,4.27
2018-10-03T22:55:20.448Z,4.30
2018-10-03T22:57:48.537Z,4.77
2018-10-03T23:00:16.462Z,3.70
2018-10-03T23:02:44.357Z,4.60
2018-10-03T23:05:12.249Z,4.00
2018-10-03T23:07:40.080Z,4.73
2018-10-03T23:10:08.322Z,6.17
2018-10-03T23:12:36.168Z,6.13
2018-10-03T23:15:04.180Z,5.10
2018-10-03T23:17:32.070Z,5.10
2018-10-03T23:19:59.932Z,5.77
2018-10-03T23:22:27.771Z,5.17
2018-10-03T23:24:55.843Z,5.17
2018-10-03T23:27:23.694Z,4.57
2018-10-03T23:29:51.568Z,4.93
2018-10-03T23:32:19.430Z,4.90
2018-10-03T23:34:47.273Z,4.90
2018-10-03T23:37:15.426Z,5.67
2018-10-03T23:39:43.265Z,5.40
2018-10-03T23:42:11.332Z,4.97
2018-10-03T23:44:39.153Z,5.00
2018-10-03T23:47:07.042Z,6.07
2018-10-03T23:49:34.937Z,5.37
2018-10-03T23:52:02.756Z,5.23
2018-10-03T23:54:30.650Z,5.93
2018-10-03T23:56:58.483Z,6.07
2018-10-03T23:59:26.331Z,7.60
